Darlington, South Carolina
Current Conditions -  °F | °C
As of 9:55 AM on Thursday 30 Oct 2014 (Local Time) from KUDG Reporting Station
Clear Clear  
Wind Chill: 16°   Ceiling: Unl
Heat Index: 16°   Visibility: 10mi
Dew Point:   Wind: 12mph
Humidity: 59%   Direction: 20°NNE
Pressure: 30.06"   Gusts: NA
Location:  34.3°N, 79.87°W
Report Text: KUDG 301355Z AUTO 02010KT 10SM CLR 16/08 A3006 RMK AO1
Loading
Personal Weather Stations






























Interactive Weather Map
Tropical Storm Tracking
New forecast layout! Learn more

10-Day Weather Forecast

Advertisements
Track Severe Weather on mobile